createdAt,value
2019-05-20T00:01:12.329Z,14.30
2019-05-20T00:03:39.791Z,14.40
2019-05-20T00:06:08.057Z,14.30
2019-05-20T00:08:35.776Z,14.30
2019-05-20T00:11:03.685Z,14.20
2019-05-20T00:13:31.189Z,14.30
2019-05-20T00:15:59.003Z,14.30
2019-05-20T00:18:26.640Z,14.20
2019-05-20T00:20:54.077Z,14.30
2019-05-20T00:23:26.013Z,14.30
2019-05-20T00:25:54.258Z,14.20
2019-05-20T00:28:22.376Z,14.20
2019-05-20T00:30:49.910Z,14.30
2019-05-20T00:33:20.854Z,14.30
2019-05-20T00:35:48.291Z,14.20
2019-05-20T00:38:16.096Z,14.30
2019-05-20T00:40:43.646Z,14.30
2019-05-20T00:43:16.793Z,14.30
2019-05-20T00:45:44.454Z,14.40
2019-05-20T00:48:13.789Z,14.30
2019-05-20T00:50:41.164Z,14.30
2019-05-20T00:53:08.745Z,14.30
2019-05-20T00:55:37.137Z,14.30
2019-05-20T00:58:05.176Z,14.30
2019-05-20T01:00:32.960Z,14.40
2019-05-20T01:03:00.816Z,14.30
2019-05-20T01:05:28.252Z,14.30
2019-05-20T01:07:56.074Z,14.30
2019-05-20T01:10:23.546Z,14.40
2019-05-20T01:12:51.551Z,14.30
2019-05-20T01:15:18.850Z,14.30
2019-05-20T01:17:46.239Z,14.30
2019-05-20T01:20:19.432Z,14.40
2019-05-20T01:22:51.376Z,14.40
2019-05-20T01:25:20.505Z,14.40
2019-05-20T01:27:48.048Z,14.40
2019-05-20T01:30:15.731Z,14.30
2019-05-20T01:32:44.332Z,14.30
2019-05-20T01:35:18.305Z,14.40
2019-05-20T01:37:45.697Z,14.40
2019-05-20T01:40:14.287Z,14.40
2019-05-20T01:42:42.013Z,14.40
2019-05-20T01:45:09.821Z,14.30
2019-05-20T01:47:37.834Z,14.30
2019-05-20T01:50:10.848Z,14.40
2019-05-20T01:52:40.941Z,14.40
2019-05-20T01:55:08.897Z,14.30
2019-05-20T01:57:39.607Z,14.30
2019-05-20T02:00:07.287Z,14.30
2019-05-20T02:02:34.826Z,14.30
2019-05-20T02:05:03.384Z,14.30
2019-05-20T02:07:31.860Z,14.30
2019-05-20T02:10:00.351Z,14.30
2019-05-20T02:12:28.301Z,14.30
2019-05-20T02:15:08.102Z,14.30
2019-05-20T02:17:36.135Z,14.30
2019-05-20T02:20:10.488Z,14.30
2019-05-20T02:22:50.234Z,14.30
2019-05-20T02:25:17.913Z,14.30
2019-05-20T02:27:52.448Z,14.40
2019-05-20T02:30:19.906Z,14.40
2019-05-20T02:32:47.849Z,14.30
2019-05-20T02:35:15.502Z,14.40
2019-05-20T02:37:49.214Z,14.30
2019-05-20T02:40:16.724Z,14.30
2019-05-20T02:42:44.041Z,14.30
2019-05-20T02:45:14.091Z,14.30
2019-05-20T02:47:44.641Z,14.30
2019-05-20T02:50:13.398Z,14.30
2019-05-20T02:52:41.046Z,14.30
2019-05-20T02:55:08.710Z,14.30
2019-05-20T02:57:36.602Z,14.20
2019-05-20T03:00:04.675Z,14.30
2019-05-20T03:02:32.201Z,14.20
2019-05-20T03:05:00.826Z,14.20
2019-05-20T03:07:29.033Z,14.20
2019-05-20T03:09:56.852Z,14.20
2019-05-20T03:12:25.536Z,14.20
2019-05-20T03:14:53.784Z,14.20
2019-05-20T03:17:21.352Z,14.20
2019-05-20T03:19:49.749Z,14.20
2019-05-20T03:22:17.280Z,14.20
2019-05-20T03:24:45.049Z,14.10
2019-05-20T03:27:13.297Z,14.20
2019-05-20T03:29:41.036Z,14.20
2019-05-20T03:32:11.103Z,14.20
2019-05-20T03:34:48.649Z,14.20
2019-05-20T03:37:11.144Z,14.20
2019-05-20T03:39:38.673Z,14.20
2019-05-20T03:42:06.107Z,14.20
2019-05-20T03:44:33.584Z,14.20
2019-05-20T03:47:04.022Z,14.10
2019-05-20T03:49:33.514Z,14.10
2019-05-20T03:52:00.927Z,14.10
2019-05-20T03:54:29.667Z,14.10
2019-05-20T03:57:00.643Z,14.10
2019-05-20T03:59:28.141Z,14.10
2019-05-20T04:01:56.636Z,14.10
2019-05-20T04:04:25.143Z,14.00
2019-05-20T04:06:56.089Z,14.00
2019-05-20T04:09:23.588Z,14.00
2019-05-20T04:11:51.419Z,14.00
2019-05-20T04:14:22.068Z,14.00
2019-05-20T04:16:51.080Z,14.00
2019-05-20T04:19:18.435Z,14.00
2019-05-20T04:21:45.907Z,14.00
2019-05-20T04:24:13.380Z,14.00
2019-05-20T04:26:41.323Z,14.00
2019-05-20T04:29:08.640Z,14.00
2019-05-20T04:31:36.457Z,14.00
2019-05-20T04:34:06.640Z,14.00
2019-05-20T04:36:40.432Z,14.10
2019-05-20T04:39:08.158Z,14.00
2019-05-20T04:41:36.242Z,14.00
2019-05-20T04:44:04.061Z,14.00
2019-05-20T04:46:31.578Z,14.00
2019-05-20T04:48:59.069Z,14.10
2019-05-20T04:51:29.892Z,14.00
2019-05-20T04:53:57.465Z,14.10
2019-05-20T04:56:28.381Z,14.10
2019-05-20T04:58:57.027Z,14.10
2019-05-20T05:01:33.264Z,14.10
2019-05-20T05:04:09.508Z,14.10
2019-05-20T05:06:38.273Z,14.20
2019-05-20T05:09:11.470Z,14.20
2019-05-20T05:11:39.384Z,14.20
2019-05-20T05:14:07.122Z,14.20
2019-05-20T05:16:35.254Z,14.30
2019-05-20T05:19:07.002Z,14.30
2019-05-20T05:21:41.284Z,14.30
2019-05-20T05:24:09.636Z,14.30
2019-05-20T05:26:47.785Z,14.20
2019-05-20T05:29:17.622Z,14.30
2019-05-20T05:31:48.805Z,14.20
2019-05-20T05:34:18.650Z,14.30
2019-05-20T05:36:46.853Z,14.30
2019-05-20T05:39:14.177Z,14.30
2019-05-20T05:41:43.814Z,14.30
2019-05-20T05:44:11.490Z,14.30
2019-05-20T05:46:41.208Z,14.30
2019-05-20T05:49:09.663Z,14.30
2019-05-20T05:51:39.889Z,14.30
2019-05-20T05:54:13.393Z,14.30
2019-05-20T05:56:46.774Z,14.30
2019-05-20T05:59:15.731Z,14.30
2019-05-20T06:01:45.753Z,14.30
2019-05-20T06:04:13.222Z,14.30
2019-05-20T06:06:46.575Z,14.30
2019-05-20T06:09:14.209Z,14.40
2019-05-20T06:11:41.700Z,14.40
2019-05-20T06:14:10.910Z,14.40
2019-05-20T06:16:38.446Z,14.40
2019-05-20T06:19:12.648Z,14.50
2019-05-20T06:21:40.966Z,14.50
2019-05-20T06:24:09.815Z,14.50
2019-05-20T06:26:38.456Z,14.50
2019-05-20T06:29:06.182Z,14.50
2019-05-20T06:31:34.357Z,14.50
2019-05-20T06:34:02.275Z,14.50
2019-05-20T06:36:29.794Z,14.60
2019-05-20T06:39:12.886Z,14.60
2019-05-20T06:41:46.640Z,14.60
2019-05-20T06:44:20.680Z,14.60
2019-05-20T06:46:48.468Z,14.70
2019-05-20T06:49:19.516Z,14.70
2019-05-20T06:51:47.513Z,14.80
2019-05-20T06:54:16.098Z,14.80
2019-05-20T06:56:48.765Z,14.80
2019-05-20T06:59:16.959Z,14.80
2019-05-20T07:01:45.115Z,14.90
2019-05-20T07:04:12.858Z,14.90
2019-05-20T07:06:46.441Z,15.00
2019-05-20T07:09:09.702Z,15.00
2019-05-20T07:11:38.890Z,15.10
2019-05-20T07:14:06.530Z,15.10
2019-05-20T07:16:34.180Z,15.10
2019-05-20T07:19:01.977Z,15.20
2019-05-20T07:21:32.093Z,15.00
2019-05-20T07:23:59.815Z,15.30
2019-05-20T07:26:27.934Z,15.40
2019-05-20T07:28:55.396Z,15.50
2019-05-20T07:31:24.875Z,15.50
2019-05-20T07:33:52.371Z,15.60
2019-05-20T07:36:20.164Z,15.70
2019-05-20T07:38:50.497Z,15.70
2019-05-20T07:41:18.980Z,15.80
2019-05-20T07:43:47.104Z,15.80
2019-05-20T07:46:14.609Z,15.90
2019-05-20T07:48:42.317Z,15.90
2019-05-20T07:51:10.605Z,15.90
2019-05-20T07:53:38.267Z,16.00
2019-05-20T07:56:11.104Z,16.10
2019-05-20T07:58:39.427Z,16.20
2019-05-20T08:01:06.855Z,16.20
2019-05-20T08:03:38.433Z,16.30
2019-05-20T08:06:04.337Z,16.40
2019-05-20T08:08:32.029Z,16.40
2019-05-20T08:11:05.651Z,16.60
2019-05-20T08:13:33.824Z,16.70
2019-05-20T08:16:04.670Z,16.70
2019-05-20T08:18:32.566Z,16.90
2019-05-20T08:21:00.288Z,16.90
2019-05-20T08:23:28.807Z,17.20
2019-05-20T08:25:56.363Z,17.20
2019-05-20T08:28:24.566Z,17.20
2019-05-20T08:30:53.115Z,17.40
2019-05-20T08:33:20.887Z,17.40
2019-05-20T08:35:48.388Z,17.60
2019-05-20T08:38:16.016Z,17.50
2019-05-20T08:40:43.583Z,17.50
2019-05-20T08:43:11.184Z,17.60
2019-05-20T08:45:38.661Z,17.50
2019-05-20T08:48:08.882Z,17.60
2019-05-20T08:50:36.269Z,17.70
2019-05-20T08:53:03.754Z,17.70
2019-05-20T08:55:31.435Z,17.80
2019-05-20T08:57:58.997Z,17.80
2019-05-20T09:00:36.406Z,17.80
2019-05-20T09:03:04.033Z,17.90
2019-05-20T09:05:34.348Z,17.90
2019-05-20T09:08:03.722Z,17.80
2019-05-20T09:10:39.317Z,17.80
2019-05-20T09:13:05.437Z,17.80
2019-05-20T09:15:33.482Z,17.60
2019-05-20T09:18:06.219Z,17.50
2019-05-20T09:20:38.902Z,17.60
2019-05-20T09:23:06.385Z,17.70
2019-05-20T09:25:38.332Z,17.60
2019-05-20T09:28:12.023Z,17.60
2019-05-20T09:30:41.709Z,17.60
2019-05-20T09:33:09.264Z,17.60
2019-05-20T09:35:36.958Z,17.60
2019-05-20T09:38:17.624Z,17.70
2019-05-20T09:40:36.121Z,17.60
2019-05-20T09:43:03.601Z,17.50
2019-05-20T09:45:31.169Z,17.60
2019-05-20T09:48:05.444Z,17.50
2019-05-20T09:50:34.739Z,17.50
2019-05-20T09:53:18.987Z,17.60
2019-05-20T09:55:46.786Z,17.50
2019-05-20T09:58:17.275Z,17.40
2019-05-20T10:00:46.657Z,17.40
2019-05-20T10:03:25.489Z,17.60
2019-05-20T10:05:59.899Z,17.70
2019-05-20T10:08:39.022Z,17.70
2019-05-20T10:11:02.287Z,17.70
2019-05-20T10:13:29.886Z,17.80
2019-05-20T10:15:58.914Z,17.80
2019-05-20T10:18:36.934Z,17.80
2019-05-20T10:21:10.024Z,17.90
2019-05-20T10:23:44.564Z,17.90
2019-05-20T10:26:13.763Z,17.90
2019-05-20T10:28:46.813Z,17.80
2019-05-20T10:31:13.501Z,17.90
2019-05-20T10:33:41.214Z,17.90
2019-05-20T10:36:08.870Z,17.80
2019-05-20T10:38:54.819Z,18.00
2019-05-20T10:41:07.782Z,18.00
2019-05-20T10:43:37.222Z,18.00
2019-05-20T10:46:05.499Z,18.00
2019-05-20T10:48:40.585Z,18.00
2019-05-20T10:51:11.237Z,18.00
2019-05-20T10:53:40.861Z,18.10
2019-05-20T10:56:08.638Z,18.20
2019-05-20T10:58:37.513Z,18.10
2019-05-20T11:01:05.265Z,18.10
2019-05-20T11:03:33.256Z,18.10
2019-05-20T11:06:14.401Z,18.00
2019-05-20T11:08:42.404Z,18.00
2019-05-20T11:11:17.756Z,18.00
2019-05-20T11:13:47.477Z,18.00
2019-05-20T11:16:23.616Z,18.00
2019-05-20T11:18:53.765Z,18.00
2019-05-20T11:21:21.429Z,17.90
2019-05-20T11:23:50.268Z,18.00
2019-05-20T11:26:18.667Z,18.10
2019-05-20T11:28:46.125Z,18.10
2019-05-20T11:31:14.958Z,18.10
2019-05-20T11:33:52.423Z,18.30
2019-05-20T11:36:20.117Z,18.50
2019-05-20T11:38:47.606Z,18.30
2019-05-20T11:41:16.163Z,18.30
2019-05-20T11:43:43.631Z,18.40
2019-05-20T11:46:11.313Z,18.40
2019-05-20T11:48:38.715Z,18.60
2019-05-20T11:51:06.364Z,18.60
2019-05-20T11:53:52.036Z,18.70
2019-05-20T11:56:23.170Z,18.80
2019-05-20T11:58:50.898Z,18.90
2019-05-20T12:01:19.119Z,18.90
2019-05-20T12:03:46.721Z,19.00
2019-05-20T12:06:14.373Z,19.20
2019-05-20T12:08:42.730Z,19.40
2019-05-20T12:11:11.438Z,19.40
2019-05-20T12:13:44.439Z,19.50
2019-05-20T12:16:15.046Z,19.60
2019-05-20T12:18:45.288Z,19.70
2019-05-20T12:21:14.918Z,19.90
2019-05-20T12:23:48.317Z,19.90
2019-05-20T12:26:22.314Z,20.00
2019-05-20T12:28:49.377Z,19.90
2019-05-20T12:31:17.776Z,19.90
2019-05-20T12:33:49.587Z,19.80
2019-05-20T12:36:26.591Z,19.90
2019-05-20T12:39:05.136Z,20.00
2019-05-20T12:41:32.680Z,20.00
2019-05-20T12:44:11.611Z,19.90
2019-05-20T12:46:32.254Z,19.90
2019-05-20T12:48:59.957Z,19.90
2019-05-20T12:51:29.647Z,20.00
2019-05-20T12:53:58.163Z,20.00
2019-05-20T12:56:26.149Z,19.90
2019-05-20T12:58:54.529Z,19.90
2019-05-20T13:01:23.159Z,20.10
2019-05-20T13:03:51.521Z,20.20
2019-05-20T13:06:19.850Z,20.30
2019-05-20T13:08:47.526Z,20.30
2019-05-20T13:11:14.924Z,20.30
2019-05-20T13:13:43.034Z,19.90
2019-05-20T13:16:10.556Z,19.90
2019-05-20T13:18:38.017Z,20.10
2019-05-20T13:21:05.491Z,20.10
2019-05-20T13:23:33.583Z,20.10
2019-05-20T13:26:01.651Z,20.10
2019-05-20T13:28:30.285Z,20.00
2019-05-20T13:31:05.148Z,20.10
2019-05-20T13:33:33.440Z,19.90
2019-05-20T13:36:02.252Z,20.00
2019-05-20T13:38:35.463Z,20.10
2019-05-20T13:41:06.569Z,19.90
2019-05-20T13:43:36.900Z,20.00
2019-05-20T13:46:04.549Z,19.90
2019-05-20T13:48:35.255Z,19.80
2019-05-20T13:51:03.204Z,19.70
2019-05-20T13:53:31.192Z,19.70
2019-05-20T13:55:59.295Z,19.70
2019-05-20T13:58:45.278Z,19.80
2019-05-20T14:01:19.088Z,19.80
2019-05-20T14:03:47.968Z,19.60
2019-05-20T14:06:17.412Z,19.60
2019-05-20T14:08:57.069Z,19.70
2019-05-20T14:11:34.759Z,19.70
2019-05-20T14:14:58.408Z,19.90
2019-05-20T14:17:18.621Z,20.00
2019-05-20T14:19:46.469Z,20.10
2019-05-20T14:22:14.130Z,20.20
2019-05-20T14:24:56.966Z,20.20
2019-05-20T14:27:25.365Z,20.20
2019-05-20T14:30:05.353Z,20.40
2019-05-20T14:32:34.521Z,20.30
2019-05-20T14:35:02.691Z,20.30
2019-05-20T14:37:31.985Z,20.30
2019-05-20T14:40:00.595Z,20.40
2019-05-20T14:42:33.173Z,20.40
2019-05-20T14:45:01.446Z,20.20
2019-05-20T14:47:28.986Z,20.30
2019-05-20T14:50:03.493Z,20.20
2019-05-20T14:52:33.113Z,20.30
2019-05-20T14:55:03.241Z,20.30
2019-05-20T14:57:31.053Z,20.20
2019-05-20T14:59:59.818Z,20.10
2019-05-20T15:02:31.245Z,20.10
2019-05-20T15:04:59.465Z,20.20
2019-05-20T15:07:30.931Z,19.80
2019-05-20T15:09:59.088Z,19.70
2019-05-20T15:12:29.156Z,19.80
2019-05-20T15:14:56.800Z,19.90
2019-05-20T15:17:36.906Z,20.00
2019-05-20T15:20:05.181Z,19.90
2019-05-20T15:22:33.168Z,19.80
2019-05-20T15:25:01.193Z,19.70
2019-05-20T15:27:30.857Z,19.60
2019-05-20T15:30:04.202Z,19.60
2019-05-20T15:32:36.797Z,19.60
2019-05-20T15:35:04.633Z,19.60
2019-05-20T15:37:35.587Z,19.60
2019-05-20T15:40:09.839Z,19.40
2019-05-20T15:42:40.561Z,19.30
2019-05-20T15:45:11.328Z,19.20
2019-05-20T15:47:39.923Z,19.20
2019-05-20T15:50:10.188Z,19.30
2019-05-20T15:52:40.160Z,19.00
2019-05-20T15:55:11.616Z,19.10
2019-05-20T15:57:39.768Z,19.10
2019-05-20T16:00:09.610Z,19.00
2019-05-20T16:02:42.740Z,19.00
2019-05-20T16:05:11.954Z,19.00
2019-05-20T16:07:39.702Z,18.90
2019-05-20T16:10:23.959Z,18.90
2019-05-20T16:13:53.580Z,18.80
2019-05-20T16:17:47.879Z,19.00
2019-05-20T16:24:09.091Z,18.70
2019-05-20T16:26:57.225Z,18.40
2019-05-20T16:29:36.962Z,18.40
2019-05-20T16:32:15.869Z,18.40
2019-05-20T16:34:46.799Z,18.30
2019-05-20T16:37:26.102Z,18.20
2019-05-20T16:40:07.792Z,18.20
2019-05-20T16:42:36.490Z,18.20
2019-05-20T16:45:06.258Z,18.10
2019-05-20T16:47:37.979Z,18.00
2019-05-20T16:50:13.594Z,17.80
2019-05-20T16:52:52.501Z,17.70
2019-05-20T16:55:22.825Z,17.70
2019-05-20T16:57:54.513Z,17.70
2019-05-20T17:00:31.224Z,17.70
2019-05-20T17:02:59.059Z,17.60
2019-05-20T17:05:39.824Z,17.70
2019-05-20T17:08:44.367Z,17.70
2019-05-20T17:11:19.786Z,17.60
2019-05-20T17:13:51.291Z,17.60
2019-05-20T17:16:20.154Z,17.50
2019-05-20T17:18:55.870Z,17.50
2019-05-20T17:22:33.363Z,17.60
2019-05-20T17:25:08.995Z,17.50
2019-05-20T17:27:52.423Z,17.50
2019-05-20T17:30:25.823Z,17.40
2019-05-20T17:32:59.328Z,17.30
2019-05-20T17:36:36.154Z,17.20
2019-05-20T17:39:07.054Z,17.00
2019-05-20T17:41:45.960Z,17.10
2019-05-20T17:44:14.438Z,17.10
2019-05-20T17:46:47.175Z,17.00
2019-05-20T17:49:19.740Z,17.00
2019-05-20T17:51:51.350Z,16.90
2019-05-20T17:54:28.219Z,17.00
2019-05-20T17:57:04.067Z,17.00
2019-05-20T17:59:35.916Z,16.90
2019-05-20T18:02:16.860Z,16.90
2019-05-20T18:04:51.254Z,16.90
2019-05-20T18:07:23.049Z,16.80
2019-05-20T18:09:55.582Z,16.90
2019-05-20T18:12:28.636Z,16.80
2019-05-20T18:15:04.933Z,16.80
2019-05-20T18:17:36.287Z,16.70
2019-05-20T18:20:07.106Z,16.60
2019-05-20T18:22:43.457Z,16.50
2019-05-20T18:25:14.864Z,16.50
2019-05-20T18:27:45.886Z,16.40
2019-05-20T18:30:22.192Z,16.40
2019-05-20T18:33:45.912Z,16.40
2019-05-20T18:36:18.450Z,16.30
2019-05-20T18:38:50.097Z,16.10
2019-05-20T18:41:21.910Z,16.10
2019-05-20T18:43:52.381Z,16.10
2019-05-20T18:47:25.164Z,16.00
2019-05-20T18:49:56.427Z,15.90
2019-05-20T18:52:28.260Z,15.70
2019-05-20T18:54:58.019Z,15.70
2019-05-20T18:57:27.608Z,15.70
2019-05-20T18:59:59.111Z,15.70
2019-05-20T19:02:29.851Z,15.60
2019-05-20T19:05:02.768Z,15.60
2019-05-20T19:07:33.285Z,15.60
2019-05-20T19:10:21.698Z,15.50
2019-05-20T19:12:52.329Z,15.50
2019-05-20T19:16:15.043Z,15.40
2019-05-20T19:18:46.584Z,15.40
2019-05-20T19:21:18.556Z,15.40
2019-05-20T19:23:52.541Z,15.40
2019-05-20T19:26:31.370Z,15.30
2019-05-20T19:29:52.566Z,15.30
2019-05-20T19:32:24.341Z,15.20
2019-05-20T19:34:57.704Z,15.10
2019-05-20T19:37:28.801Z,15.00
2019-05-20T19:40:01.225Z,14.90
2019-05-20T19:42:37.670Z,14.80
2019-05-20T19:45:13.717Z,14.70
2019-05-20T19:48:04.196Z,14.70
2019-05-20T19:50:34.665Z,14.70
2019-05-20T19:53:11.712Z,14.70
2019-05-20T19:55:46.754Z,14.70
2019-05-20T19:58:56.973Z,14.60
2019-05-20T20:01:31.972Z,14.60
2019-05-20T20:04:07.620Z,14.60
2019-05-20T20:06:39.988Z,14.50
2019-05-20T20:09:13.296Z,14.40
2019-05-20T20:12:02.278Z,14.40
2019-05-20T20:14:36.249Z,14.40
2019-05-20T20:17:18.534Z,14.30
2019-05-20T20:20:28.437Z,14.20
2019-05-20T20:23:46.068Z,14.20
2019-05-20T20:26:26.921Z,14.10
2019-05-20T20:29:00.228Z,14.10
2019-05-20T20:31:29.988Z,14.10
2019-05-20T20:34:37.800Z,14.10
2019-05-20T20:37:07.387Z,14.00
2019-05-20T20:39:37.962Z,14.00
2019-05-20T20:42:13.081Z,14.00
2019-05-20T20:44:43.170Z,13.90
2019-05-20T20:47:13.179Z,13.90
2019-05-20T20:49:52.134Z,13.90
2019-05-20T20:52:44.626Z,13.80
2019-05-20T20:55:20.729Z,13.70
2019-05-20T20:57:58.212Z,13.70
2019-05-20T21:00:27.120Z,13.70
2019-05-20T21:03:10.485Z,13.60
2019-05-20T21:05:49.931Z,13.60
2019-05-20T21:08:18.350Z,13.50
2019-05-20T21:10:50.511Z,13.50
2019-05-20T21:13:27.278Z,13.50
2019-05-20T21:15:58.688Z,13.50
2019-05-20T21:18:41.104Z,13.50
2019-05-20T21:21:13.783Z,13.50
2019-05-20T21:23:42.006Z,13.50
2019-05-20T21:26:10.823Z,13.50
2019-05-20T21:28:40.809Z,13.50
2019-05-20T21:31:57.799Z,13.50
2019-05-20T21:34:30.816Z,13.40
2019-05-20T21:37:27.182Z,13.40
2019-05-20T21:39:55.891Z,13.30
2019-05-20T21:42:37.621Z,13.30
2019-05-20T21:46:00.895Z,13.30
2019-05-20T21:48:35.116Z,13.30
2019-05-20T21:51:24.020Z,13.40
2019-05-20T21:53:56.624Z,13.40
2019-05-20T21:56:25.727Z,13.40
2019-05-20T21:58:58.356Z,13.30
2019-05-20T22:01:28.797Z,13.30
2019-05-20T22:04:03.143Z,13.30
2019-05-20T22:06:31.615Z,13.30
2019-05-20T22:09:06.132Z,13.30
2019-05-20T22:11:43.524Z,13.30
2019-05-20T22:14:42.028Z,13.40
2019-05-20T22:17:10.263Z,13.40
2019-05-20T22:19:42.554Z,13.30
2019-05-20T22:22:27.928Z,13.30
2019-05-20T22:25:56.518Z,13.30
2019-05-20T22:29:17.554Z,13.30
2019-05-20T22:31:49.031Z,13.20
2019-05-20T22:34:28.061Z,13.20
2019-05-20T22:37:02.632Z,13.20
2019-05-20T22:39:38.593Z,13.20
2019-05-20T22:42:09.684Z,13.30
2019-05-20T22:44:39.963Z,13.20
2019-05-20T22:47:10.799Z,13.20
2019-05-20T22:49:40.903Z,13.20
2019-05-20T22:52:11.428Z,13.20
2019-05-20T22:54:45.893Z,13.20
2019-05-20T22:57:15.418Z,13.20
2019-05-20T22:59:45.696Z,13.20
2019-05-20T23:02:16.313Z,13.10
2019-05-20T23:05:29.849Z,13.10
2019-05-20T23:08:19.046Z,13.10
2019-05-20T23:10:52.092Z,13.20
2019-05-20T23:13:26.157Z,13.10
2019-05-20T23:16:14.272Z,13.10
2019-05-20T23:18:43.345Z,13.20
2019-05-20T23:21:16.068Z,13.20
2019-05-20T23:23:46.991Z,13.10
2019-05-20T23:26:20.413Z,13.10
2019-05-20T23:28:56.893Z,13.10
2019-05-20T23:31:29.293Z,13.10
2019-05-20T23:34:12.150Z,13.10
2019-05-20T23:36:30.337Z,13.10
2019-05-20T23:38:59.090Z,13.10
2019-05-20T23:41:51.492Z,13.10
2019-05-20T23:44:28.359Z,13.10
2019-05-20T23:47:02.675Z,13.10
2019-05-20T23:49:32.001Z,13.10
2019-05-20T23:52:01.758Z,13.10
2019-05-20T23:54:36.313Z,13.10
2019-05-20T23:57:08.396Z,13.10
2019-05-20T23:59:46.236Z,13.00
